sensor_id;sensor_type;location;lat;lon;timestamp;pressure;altitude;pressure_sealevel;temperature;humidity
28027;BME280;15344;52.342;-1.290;2023-02-04T00:00:17;102124.94;;;14.59;77.67
28027;BME280;15344;52.342;-1.290;2023-02-04T00:02:40;102120.86;;;14.71;75.41
28027;BME280;15344;52.342;-1.290;2023-02-04T00:05:06;102123.87;;;14.91;75.17
28027;BME280;15344;52.342;-1.290;2023-02-04T00:07:30;102127.43;;;14.72;75.89
28027;BME280;15344;52.342;-1.290;2023-02-04T00:09:56;102128.42;;;14.44;77.54
28027;BME280;15344;52.342;-1.290;2023-02-04T00:12:22;102126.35;;;14.68;76.58
28027;BME280;15344;52.342;-1.290;2023-02-04T00:14:46;102122.91;;;13.54;81.77
28027;BME280;15344;52.342;-1.290;2023-02-04T00:17:12;102121.53;;;13.62;80.96
28027;BME280;15344;52.342;-1.290;2023-02-04T00:19:37;102123.63;;;14.27;81.18
28027;BME280;15344;52.342;-1.290;2023-02-04T00:22:02;102130.35;;;14.07;81.65
28027;BME280;15344;52.342;-1.290;2023-02-04T00:24:28;102128.10;;;13.99;81.81
28027;BME280;15344;52.342;-1.290;2023-02-04T00:26:53;102128.63;;;14.12;81.63
28027;BME280;15344;52.342;-1.290;2023-02-04T00:29:18;102127.22;;;14.37;79.19
28027;BME280;15344;52.342;-1.290;2023-02-04T00:31:43;102124.97;;;14.59;81.19
28027;BME280;15344;52.342;-1.290;2023-02-04T00:34:09;102123.54;;;14.32;81.88
28027;BME280;15344;52.342;-1.290;2023-02-04T00:36:34;102124.23;;;14.06;82.85
28027;BME280;15344;52.342;-1.290;2023-02-04T00:38:59;102126.71;;;14.08;83.00
28027;BME280;15344;52.342;-1.290;2023-02-04T00:41:25;102123.84;;;13.94;83.56
28027;BME280;15344;52.342;-1.290;2023-02-04T00:43:50;102124.90;;;13.44;85.94
28027;BME280;15344;52.342;-1.290;2023-02-04T00:46:15;102127.52;;;14.06;84.67
28027;BME280;15344;52.342;-1.290;2023-02-04T00:48:41;102129.72;;;14.30;83.39
28027;BME280;15344;52.342;-1.290;2023-02-04T00:51:06;102132.72;;;13.86;84.77
28027;BME280;15344;52.342;-1.290;2023-02-04T00:53:31;102137.04;;;14.29;83.17
28027;BME280;15344;52.342;-1.290;2023-02-04T00:55:57;102131.75;;;14.28;81.32
28027;BME280;15344;52.342;-1.290;2023-02-04T00:58:22;102131.29;;;14.11;83.14
28027;BME280;15344;52.342;-1.290;2023-02-04T01:00:47;102131.69;;;14.53;82.75
28027;BME280;15344;52.342;-1.290;2023-02-04T01:03:13;102133.10;;;14.28;83.46
28027;BME280;15344;52.342;-1.290;2023-02-04T01:05:38;102132.39;;;13.69;85.76
28027;BME280;15344;52.342;-1.290;2023-02-04T01:08:03;102140.09;;;13.34;87.10
28027;BME280;15344;52.342;-1.290;2023-02-04T01:10:29;102142.62;;;13.12;89.55
28027;BME280;15344;52.342;-1.290;2023-02-04T01:12:54;102135.01;;;13.10;89.13
28027;BME280;15344;52.342;-1.290;2023-02-04T01:15:19;102134.77;;;14.03;85.72
28027;BME280;15344;52.342;-1.290;2023-02-04T01:17:45;102135.50;;;14.00;84.96
28027;BME280;15344;52.342;-1.290;2023-02-04T01:20:11;102133.78;;;14.70;83.63
28027;BME280;15344;52.342;-1.290;2023-02-04T01:22:36;102137.15;;;14.07;85.06
28027;BME280;15344;52.342;-1.290;2023-02-04T01:25:01;102139.25;;;14.33;84.60
28027;BME280;15344;52.342;-1.290;2023-02-04T01:27:26;102146.52;;;14.16;84.84
28027;BME280;15344;52.342;-1.290;2023-02-04T01:29:51;102149.45;;;14.76;83.25
28027;BME280;15344;52.342;-1.290;2023-02-04T01:32:16;102146.32;;;14.55;83.46
28027;BME280;15344;52.342;-1.290;2023-02-04T01:34:42;102149.66;;;14.44;84.34
28027;BME280;15344;52.342;-1.290;2023-02-04T01:37:12;102153.49;;;14.10;85.57
28027;BME280;15344;52.342;-1.290;2023-02-04T01:39:32;102156.85;;;13.56;88.24
28027;BME280;15344;52.342;-1.290;2023-02-04T01:41:58;102160.55;;;14.11;86.09
28027;BME280;15344;52.342;-1.290;2023-02-04T01:44:23;102161.39;;;14.14;85.88
28027;BME280;15344;52.342;-1.290;2023-02-04T01:46:48;102169.72;;;13.39;89.63
28027;BME280;15344;52.342;-1.290;2023-02-04T01:49:14;102167.74;;;13.49;90.45
28027;BME280;15344;52.342;-1.290;2023-02-04T01:51:39;102166.09;;;13.58;89.76
28027;BME280;15344;52.342;-1.290;2023-02-04T01:54:08;102165.09;;;13.54;90.46
28027;BME280;15344;52.342;-1.290;2023-02-04T01:56:30;102166.98;;;13.30;91.97
28027;BME280;15344;52.342;-1.290;2023-02-04T01:58:56;102170.00;;;13.06;93.62
28027;BME280;15344;52.342;-1.290;2023-02-04T02:03:46;102163.52;;;13.48;91.44
28027;BME280;15344;52.342;-1.290;2023-02-04T02:06:12;102165.59;;;13.40;92.03
28027;BME280;15344;52.342;-1.290;2023-02-04T02:08:37;102163.36;;;13.25;92.25
28027;BME280;15344;52.342;-1.290;2023-02-04T02:11:02;102164.99;;;12.79;95.48
28027;BME280;15344;52.342;-1.290;2023-02-04T02:13:27;102166.58;;;13.60;92.43
28027;BME280;15344;52.342;-1.290;2023-02-04T02:15:53;102170.84;;;13.25;94.48
28027;BME280;15344;52.342;-1.290;2023-02-04T02:18:18;102171.77;;;12.90;96.99
28027;BME280;15344;52.342;-1.290;2023-02-04T02:20:43;102169.28;;;12.63;96.93
28027;BME280;15344;52.342;-1.290;2023-02-04T02:23:15;102163.73;;;12.76;97.44
28027;BME280;15344;52.342;-1.290;2023-02-04T02:25:34;102159.24;;;13.29;94.55
28027;BME280;15344;52.342;-1.290;2023-02-04T02:28:00;102163.46;;;13.04;96.20
28027;BME280;15344;52.342;-1.290;2023-02-04T02:30:25;102161.77;;;12.48;97.34
28027;BME280;15344;52.342;-1.290;2023-02-04T02:32:51;102156.96;;;13.37;94.99
28027;BME280;15344;52.342;-1.290;2023-02-04T02:35:16;102160.39;;;12.97;95.81
28027;BME280;15344;52.342;-1.290;2023-02-04T02:37:41;102158.78;;;13.00;96.89
28027;BME280;15344;52.342;-1.290;2023-02-04T02:40:07;102163.13;;;12.61;96.75
28027;BME280;15344;52.342;-1.290;2023-02-04T02:42:32;102158.80;;;12.41;99.51
28027;BME280;15344;52.342;-1.290;2023-02-04T02:44:57;102155.25;;;12.10;100.00
28027;BME280;15344;52.342;-1.290;2023-02-04T02:47:23;102152.51;;;12.33;100.00
28027;BME280;15344;52.342;-1.290;2023-02-04T02:49:53;102151.88;;;12.12;100.00
28027;BME280;15344;52.342;-1.290;2023-02-04T02:52:13;102154.97;;;12.49;99.83
28027;BME280;15344;52.342;-1.290;2023-02-04T02:54:39;102156.72;;;12.12;100.00
28027;BME280;15344;52.342;-1.290;2023-02-04T02:57:10;102162.71;;;12.82;98.81
28027;BME280;15344;52.342;-1.290;2023-02-04T02:59:29;102161.43;;;12.83;97.41
28027;BME280;15344;52.342;-1.290;2023-02-04T03:01:56;102156.37;;;12.98;97.44
28027;BME280;15344;52.342;-1.290;2023-02-04T03:04:21;102148.19;;;12.09;100.00
28027;BME280;15344;52.342;-1.290;2023-02-04T03:06:45;102148.97;;;12.55;97.56
28027;BME280;15344;52.342;-1.290;2023-02-04T03:09:11;102145.65;;;12.17;100.00
28027;BME280;15344;52.342;-1.290;2023-02-04T03:11:36;102145.13;;;12.40;100.00
28027;BME280;15344;52.342;-1.290;2023-02-04T03:14:01;102147.97;;;12.23;100.00
28027;BME280;15344;52.342;-1.290;2023-02-04T03:16:27;102148.82;;;12.22;100.00
28027;BME280;15344;52.342;-1.290;2023-02-04T03:18:52;102150.84;;;12.28;100.00
28027;BME280;15344;52.342;-1.290;2023-02-04T03:21:17;102151.39;;;12.41;100.00
28027;BME280;15344;52.342;-1.290;2023-02-04T03:23:43;102149.24;;;12.43;99.08
28027;BME280;15344;52.342;-1.290;2023-02-04T03:26:08;102150.45;;;12.48;98.98
28027;BME280;15344;52.342;-1.290;2023-02-04T03:28:37;102148.47;;;12.94;96.33
28027;BME280;15344;52.342;-1.290;2023-02-04T03:30:58;102147.39;;;12.91;97.96
28027;BME280;15344;52.342;-1.290;2023-02-04T03:33:25;102146.52;;;13.24;96.56
28027;BME280;15344;52.342;-1.290;2023-02-04T03:35:49;102142.53;;;13.00;96.50
28027;BME280;15344;52.342;-1.290;2023-02-04T03:38:15;102145.68;;;12.37;98.29
28027;BME280;15344;52.342;-1.290;2023-02-04T03:40:40;102144.86;;;13.42;95.90
28027;BME280;15344;52.342;-1.290;2023-02-04T03:43:05;102147.57;;;13.27;94.45
28027;BME280;15344;52.342;-1.290;2023-02-04T03:45:31;102153.06;;;13.14;93.92
28027;BME280;15344;52.342;-1.290;2023-02-04T03:47:56;102148.30;;;13.21;96.16
28027;BME280;15344;52.342;-1.290;2023-02-04T03:50:26;102139.73;;;13.26;93.21
28027;BME280;15344;52.342;-1.290;2023-02-04T03:52:47;102143.22;;;13.17;95.41
28027;BME280;15344;52.342;-1.290;2023-02-04T03:55:12;102144.43;;;13.14;94.21
28027;BME280;15344;52.342;-1.290;2023-02-04T03:57:37;102147.24;;;12.63;98.42
28027;BME280;15344;52.342;-1.290;2023-02-04T04:00:03;102145.88;;;12.16;100.00
28027;BME280;15344;52.342;-1.290;2023-02-04T04:02:28;102146.07;;;12.69;100.00
28027;BME280;15344;52.342;-1.290;2023-02-04T04:04:53;102146.26;;;12.04;100.00
28027;BME280;15344;52.342;-1.290;2023-02-04T04:07:19;102148.95;;;12.02;100.00
28027;BME280;15344;52.342;-1.290;2023-02-04T04:09:44;102149.91;;;11.49;100.00
28027;BME280;15344;52.342;-1.290;2023-02-04T04:12:10;102151.67;;;12.16;100.00
28027;BME280;15344;52.342;-1.290;2023-02-04T04:14:35;102155.94;;;12.76;100.00
28027;BME280;15344;52.342;-1.290;2023-02-04T04:17:00;102151.35;;;11.69;100.00
28027;BME280;15344;52.342;-1.290;2023-02-04T04:19:25;102157.01;;;12.91;100.00
28027;BME280;15344;52.342;-1.290;2023-02-04T04:21:51;102154.76;;;11.91;100.00
28027;BME280;15344;52.342;-1.290;2023-02-04T04:24:16;102155.51;;;11.45;100.00
28027;BME280;15344;52.342;-1.290;2023-02-04T04:26:41;102158.60;;;11.90;100.00
28027;BME280;15344;52.342;-1.290;2023-02-04T04:29:07;102156.27;;;11.86;100.00
28027;BME280;15344;52.342;-1.290;2023-02-04T04:31:32;102157.25;;;12.27;100.00
28027;BME280;15344;52.342;-1.290;2023-02-04T04:33:58;102155.79;;;11.08;100.00
28027;BME280;15344;52.342;-1.290;2023-02-04T04:36:23;102156.85;;;11.64;100.00
28027;BME280;15344;52.342;-1.290;2023-02-04T04:38:48;102162.55;;;12.08;100.00
28027;BME280;15344;52.342;-1.290;2023-02-04T04:41:14;102163.97;;;12.19;100.00
28027;BME280;15344;52.342;-1.290;2023-02-04T04:43:39;102163.51;;;12.16;100.00
28027;BME280;15344;52.342;-1.290;2023-02-04T04:46:04;102166.98;;;12.67;100.00
28027;BME280;15344;52.342;-1.290;2023-02-04T04:48:30;102168.33;;;12.18;100.00
28027;BME280;15344;52.342;-1.290;2023-02-04T04:50:55;102173.15;;;12.63;100.00
28027;BME280;15344;52.342;-1.290;2023-02-04T04:53:21;102171.47;;;11.78;100.00
28027;BME280;15344;52.342;-1.290;2023-02-04T04:55:46;102169.63;;;11.84;100.00
28027;BME280;15344;52.342;-1.290;2023-02-04T04:58:12;102170.64;;;11.38;100.00
28027;BME280;15344;52.342;-1.290;2023-02-04T05:00:37;102167.79;;;11.80;100.00
28027;BME280;15344;52.342;-1.290;2023-02-04T05:03:02;102176.67;;;11.52;100.00
28027;BME280;15344;52.342;-1.290;2023-02-04T05:05:27;102178.16;;;12.45;100.00
28027;BME280;15344;52.342;-1.290;2023-02-04T05:07:53;102177.86;;;11.69;100.00
28027;BME280;15344;52.342;-1.290;2023-02-04T05:10:19;102184.42;;;11.53;100.00
28027;BME280;15344;52.342;-1.290;2023-02-04T05:12:44;102188.18;;;11.78;100.00
28027;BME280;15344;52.342;-1.290;2023-02-04T05:15:09;102187.81;;;11.54;100.00
28027;BME280;15344;52.342;-1.290;2023-02-04T05:17:39;102188.54;;;11.36;100.00
28027;BME280;15344;52.342;-1.290;2023-02-04T05:20:01;102185.17;;;11.57;100.00
28027;BME280;15344;52.342;-1.290;2023-02-04T05:22:25;102183.85;;;11.40;100.00
28027;BME280;15344;52.342;-1.290;2023-02-04T05:24:50;102181.72;;;12.05;100.00
28027;BME280;15344;52.342;-1.290;2023-02-04T05:27:16;102184.31;;;12.43;100.00
28027;BME280;15344;52.342;-1.290;2023-02-04T05:29:41;102191.75;;;12.35;100.00
28027;BME280;15344;52.342;-1.290;2023-02-04T05:32:06;102194.35;;;12.49;100.00
28027;BME280;15344;52.342;-1.290;2023-02-04T05:34:32;102198.97;;;11.64;100.00
28027;BME280;15344;52.342;-1.290;2023-02-04T05:36:57;102195.70;;;11.84;100.00
28027;BME280;15344;52.342;-1.290;2023-02-04T05:39:23;102196.68;;;12.23;100.00
28027;BME280;15344;52.342;-1.290;2023-02-04T05:41:48;102200.39;;;12.40;100.00
28027;BME280;15344;52.342;-1.290;2023-02-04T05:44:13;102205.19;;;12.09;100.00
28027;BME280;15344;52.342;-1.290;2023-02-04T05:46:39;102206.17;;;12.20;100.00
28027;BME280;15344;52.342;-1.290;2023-02-04T05:49:04;102207.74;;;12.19;100.00
28027;BME280;15344;52.342;-1.290;2023-02-04T05:51:29;102209.38;;;12.48;99.43
28027;BME280;15344;52.342;-1.290;2023-02-04T05:53:55;102213.25;;;12.91;95.88
28027;BME280;15344;52.342;-1.290;2023-02-04T05:56:20;102208.03;;;12.61;97.03
28027;BME280;15344;52.342;-1.290;2023-02-04T05:58:46;102209.25;;;13.13;95.12
28027;BME280;15344;52.342;-1.290;2023-02-04T06:01:11;102210.88;;;12.65;95.60
28027;BME280;15344;52.342;-1.290;2023-02-04T06:03:36;102213.81;;;13.13;94.93
28027;BME280;15344;52.342;-1.290;2023-02-04T06:06:02;102212.24;;;12.84;95.66
28027;BME280;15344;52.342;-1.290;2023-02-04T06:08:28;102207.48;;;11.98;99.24
28027;BME280;15344;52.342;-1.290;2023-02-04T06:10:52;102207.03;;;12.50;97.37
28027;BME280;15344;52.342;-1.290;2023-02-04T06:13:18;102208.59;;;12.17;99.24
28027;BME280;15344;52.342;-1.290;2023-02-04T06:15:43;102208.88;;;11.75;99.82
28027;BME280;15344;52.342;-1.290;2023-02-04T06:18:09;102212.59;;;11.43;100.00
28027;BME280;15344;52.342;-1.290;2023-02-04T06:20:34;102212.30;;;11.55;100.00
28027;BME280;15344;52.342;-1.290;2023-02-04T06:22:59;102210.87;;;12.33;100.00
28027;BME280;15344;52.342;-1.290;2023-02-04T06:25:25;102214.39;;;11.62;100.00
28027;BME280;15344;52.342;-1.290;2023-02-04T06:27:50;102211.69;;;12.02;100.00
28027;BME280;15344;52.342;-1.290;2023-02-04T06:30:16;102211.24;;;12.37;99.15
28027;BME280;15344;52.342;-1.290;2023-02-04T06:32:41;102214.74;;;12.28;98.76
28027;BME280;15344;52.342;-1.290;2023-02-04T06:35:08;102215.63;;;12.05;99.67
28027;BME280;15344;52.342;-1.290;2023-02-04T06:37:32;102221.94;;;12.00;98.48
28027;BME280;15344;52.342;-1.290;2023-02-04T06:39:57;102224.32;;;11.91;97.81
28027;BME280;15344;52.342;-1.290;2023-02-04T06:42:23;102224.76;;;12.18;97.03
28027;BME280;15344;52.342;-1.290;2023-02-04T06:44:48;102222.45;;;12.70;95.52
28027;BME280;15344;52.342;-1.290;2023-02-04T06:47:13;102218.66;;;11.98;97.41
28027;BME280;15344;52.342;-1.290;2023-02-04T06:49:39;102222.73;;;11.77;99.74
28027;BME280;15344;52.342;-1.290;2023-02-04T06:52:04;102224.07;;;12.57;95.72
28027;BME280;15344;52.342;-1.290;2023-02-04T06:54:29;102226.35;;;12.52;95.16
28027;BME280;15344;52.342;-1.290;2023-02-04T06:56:55;102225.73;;;12.12;97.59
28027;BME280;15344;52.342;-1.290;2023-02-04T06:59:20;102226.99;;;12.03;97.50
28027;BME280;15344;52.342;-1.290;2023-02-04T07:01:46;102230.23;;;12.31;96.34
28027;BME280;15344;52.342;-1.290;2023-02-04T07:04:11;102234.15;;;11.31;100.00
28027;BME280;15344;52.342;-1.290;2023-02-04T07:06:36;102233.43;;;11.36;100.00
28027;BME280;15344;52.342;-1.290;2023-02-04T07:09:02;102230.74;;;11.88;99.76
28027;BME280;15344;52.342;-1.290;2023-02-04T07:11:27;102234.04;;;11.46;100.00
28027;BME280;15344;52.342;-1.290;2023-02-04T07:13:52;102233.80;;;10.96;100.00
28027;BME280;15344;52.342;-1.290;2023-02-04T07:16:18;102236.34;;;11.04;100.00
28027;BME280;15344;52.342;-1.290;2023-02-04T07:18:43;102236.15;;;11.37;98.95
28027;BME280;15344;52.342;-1.290;2023-02-04T07:21:09;102244.83;;;11.34;99.76
28027;BME280;15344;52.342;-1.290;2023-02-04T07:23:34;102246.78;;;11.41;98.73
28027;BME280;15344;52.342;-1.290;2023-02-04T07:25:59;102245.80;;;12.25;96.47
28027;BME280;15344;52.342;-1.290;2023-02-04T07:28:25;102248.96;;;12.04;96.60
28027;BME280;15344;52.342;-1.290;2023-02-04T07:30:50;102253.66;;;11.41;96.48
28027;BME280;15344;52.342;-1.290;2023-02-04T07:33:16;102253.75;;;12.01;92.99
28027;BME280;15344;52.342;-1.290;2023-02-04T07:35:41;102256.47;;;10.84;98.16
28027;BME280;15344;52.342;-1.290;2023-02-04T07:38:06;102253.48;;;11.25;97.89
28027;BME280;15344;52.342;-1.290;2023-02-04T07:40:32;102255.48;;;11.97;93.68
28027;BME280;15344;52.342;-1.290;2023-02-04T07:42:57;102263.04;;;11.19;94.40
28027;BME280;15344;52.342;-1.290;2023-02-04T07:45:23;102267.29;;;11.62;93.80
28027;BME280;15344;52.342;-1.290;2023-02-04T07:47:48;102271.55;;;11.85;91.44
28027;BME280;15344;52.342;-1.290;2023-02-04T07:50:14;102274.57;;;12.04;90.68
28027;BME280;15344;52.342;-1.290;2023-02-04T07:52:39;102278.71;;;11.06;93.96
28027;BME280;15344;52.342;-1.290;2023-02-04T07:55:05;102274.27;;;11.96;91.29
28027;BME280;15344;52.342;-1.290;2023-02-04T07:57:30;102275.83;;;12.26;89.45
28027;BME280;15344;52.342;-1.290;2023-02-04T07:59:55;102275.65;;;12.51;88.42
28027;BME280;15344;52.342;-1.290;2023-02-04T08:02:20;102284.33;;;12.83;86.44
28027;BME280;15344;52.342;-1.290;2023-02-04T08:04:46;102289.92;;;13.07;84.03
28027;BME280;15344;52.342;-1.290;2023-02-04T08:07:11;102290.03;;;12.54;86.80
28027;BME280;15344;52.342;-1.290;2023-02-04T08:09:36;102293.43;;;13.25;84.56
28027;BME280;15344;52.342;-1.290;2023-02-04T08:12:02;102296.45;;;13.02;84.75
28027;BME280;15344;52.342;-1.290;2023-02-04T08:14:27;102298.98;;;13.37;82.67
28027;BME280;15344;52.342;-1.290;2023-02-04T08:16:53;102296.55;;;14.04;80.65
28027;BME280;15344;52.342;-1.290;2023-02-04T08:19:18;102298.09;;;12.99;82.35
28027;BME280;15344;52.342;-1.290;2023-02-04T08:21:44;102301.70;;;13.53;80.76
28027;BME280;15344;52.342;-1.290;2023-02-04T08:24:09;102301.67;;;13.56;79.81
28027;BME280;15344;52.342;-1.290;2023-02-04T08:26:34;102304.24;;;14.20;78.50
28027;BME280;15344;52.342;-1.290;2023-02-04T08:28:59;102310.83;;;13.84;78.97
28027;BME280;15344;52.342;-1.290;2023-02-04T08:31:24;102316.64;;;13.75;79.96
28027;BME280;15344;52.342;-1.290;2023-02-04T08:33:50;102319.06;;;13.47;81.21
28027;BME280;15344;52.342;-1.290;2023-02-04T08:36:15;102320.15;;;13.48;82.13
28027;BME280;15344;52.342;-1.290;2023-02-04T08:38:40;102318.60;;;13.50;83.65
28027;BME280;15344;52.342;-1.290;2023-02-04T08:41:06;102317.24;;;13.12;83.68
28027;BME280;15344;52.342;-1.290;2023-02-04T08:43:31;102314.97;;;13.40;83.34
28027;BME280;15344;52.342;-1.290;2023-02-04T08:45:57;102317.96;;;13.09;85.09
28027;BME280;15344;52.342;-1.290;2023-02-04T08:48:22;102317.82;;;13.28;84.91
28027;BME280;15344;52.342;-1.290;2023-02-04T08:50:48;102318.10;;;12.75;86.44
28027;BME280;15344;52.342;-1.290;2023-02-04T08:53:13;102318.36;;;12.90;86.19
28027;BME280;15344;52.342;-1.290;2023-02-04T08:55:38;102321.00;;;12.96;86.04
28027;BME280;15344;52.342;-1.290;2023-02-04T08:58:03;102328.86;;;13.22;85.17
28027;BME280;15344;52.342;-1.290;2023-02-04T09:00:29;102332.35;;;13.36;84.59
28027;BME280;15344;52.342;-1.290;2023-02-04T09:02:54;102340.82;;;13.56;84.04
28027;BME280;15344;52.342;-1.290;2023-02-04T09:05:19;102339.85;;;13.31;84.82
28027;BME280;15344;52.342;-1.290;2023-02-04T09:07:45;102343.12;;;13.59;84.24
28027;BME280;15344;52.342;-1.290;2023-02-04T09:10:10;102344.17;;;13.80;82.49
28027;BME280;15344;52.342;-1.290;2023-02-04T09:12:35;102344.86;;;12.76;84.49
28027;BME280;15344;52.342;-1.290;2023-02-04T09:15:01;102344.23;;;13.76;81.49
28027;BME280;15344;52.342;-1.290;2023-02-04T09:17:26;102343.09;;;13.10;84.49
28027;BME280;15344;52.342;-1.290;2023-02-04T09:19:51;102347.52;;;13.63;83.26
28027;BME280;15344;52.342;-1.290;2023-02-04T09:22:17;102348.94;;;13.02;84.63
28027;BME280;15344;52.342;-1.290;2023-02-04T09:24:42;102350.26;;;14.13;81.24
28027;BME280;15344;52.342;-1.290;2023-02-04T09:27:08;102350.98;;;13.87;80.05
28027;BME280;15344;52.342;-1.290;2023-02-04T09:29:33;102348.25;;;13.60;82.02
28027;BME280;15344;52.342;-1.290;2023-02-04T09:31:58;102351.53;;;14.25;79.28
28027;BME280;15344;52.342;-1.290;2023-02-04T09:34:24;102346.80;;;13.32;81.22
28027;BME280;15344;52.342;-1.290;2023-02-04T09:36:49;102349.15;;;13.38;83.15
28027;BME280;15344;52.342;-1.290;2023-02-04T09:39:14;102347.38;;;13.45;82.85
28027;BME280;15344;52.342;-1.290;2023-02-04T09:41:40;102344.18;;;13.24;83.67
28027;BME280;15344;52.342;-1.290;2023-02-04T09:44:09;102348.44;;;14.00;81.25
28027;BME280;15344;52.342;-1.290;2023-02-04T09:46:31;102350.22;;;13.67;81.03
28027;BME280;15344;52.342;-1.290;2023-02-04T09:48:57;102350.63;;;13.73;81.68
28027;BME280;15344;52.342;-1.290;2023-02-04T09:51:23;102350.05;;;12.98;83.62
28027;BME280;15344;52.342;-1.290;2023-02-04T09:53:47;102348.70;;;13.79;82.02
28027;BME280;15344;52.342;-1.290;2023-02-04T09:56:12;102349.87;;;13.98;79.72
28027;BME280;15344;52.342;-1.290;2023-02-04T09:58:37;102346.36;;;13.34;80.69
28027;BME280;15344;52.342;-1.290;2023-02-04T10:01:11;102342.34;;;13.30;83.59
28027;BME280;15344;52.342;-1.290;2023-02-04T10:03:28;102340.94;;;13.25;80.72
28027;BME280;15344;52.342;-1.290;2023-02-04T10:05:53;102343.82;;;13.12;79.45
28027;BME280;15344;52.342;-1.290;2023-02-04T10:08:21;102347.13;;;13.91;78.71
28027;BME280;15344;52.342;-1.290;2023-02-04T10:10:45;102346.10;;;13.01;82.25
28027;BME280;15344;52.342;-1.290;2023-02-04T10:13:15;102347.13;;;13.22;81.47
28027;BME280;15344;52.342;-1.290;2023-02-04T10:15:35;102350.83;;;12.93;81.74
28027;BME280;15344;52.342;-1.290;2023-02-04T10:18:03;102355.49;;;13.79;79.37
28027;BME280;15344;52.342;-1.290;2023-02-04T10:20:26;102360.63;;;12.36;84.82
28027;BME280;15344;52.342;-1.290;2023-02-04T10:22:53;102363.30;;;11.81;86.79
28027;BME280;15344;52.342;-1.290;2023-02-04T10:25:19;102363.13;;;12.65;83.92
28027;BME280;15344;52.342;-1.290;2023-02-04T10:27:47;102359.82;;;12.54;83.71
28027;BME280;15344;52.342;-1.290;2023-02-04T10:30:18;102358.79;;;13.24;80.90
28027;BME280;15344;52.342;-1.290;2023-02-04T10:32:33;102356.97;;;12.79;78.16
28027;BME280;15344;52.342;-1.290;2023-02-04T10:35:00;102358.84;;;13.07;78.20
28027;BME280;15344;52.342;-1.290;2023-02-04T10:37:23;102357.59;;;13.56;76.84
28027;BME280;15344;52.342;-1.290;2023-02-04T10:39:49;102359.04;;;13.53;76.70
28027;BME280;15344;52.342;-1.290;2023-02-04T10:42:20;102363.23;;;13.33;77.09
28027;BME280;15344;52.342;-1.290;2023-02-04T10:44:46;102361.51;;;13.07;77.12
28027;BME280;15344;52.342;-1.290;2023-02-04T10:47:13;102366.15;;;13.27;75.42
28027;BME280;15344;52.342;-1.290;2023-02-04T10:49:31;102371.43;;;13.92;71.67
28027;BME280;15344;52.342;-1.290;2023-02-04T10:51:56;102376.31;;;14.45;71.18
28027;BME280;15344;52.342;-1.290;2023-02-04T10:54:24;102374.06;;;14.21;69.61
28027;BME280;15344;52.342;-1.290;2023-02-04T10:56:46;102371.49;;;14.21;70.62
28027;BME280;15344;52.342;-1.290;2023-02-04T10:59:20;102377.79;;;14.21;70.56
28027;BME280;15344;52.342;-1.290;2023-02-04T11:01:37;102377.68;;;14.32;70.17
28027;BME280;15344;52.342;-1.290;2023-02-04T11:04:04;102374.38;;;13.02;74.93
28027;BME280;15344;52.342;-1.290;2023-02-04T11:06:28;102374.38;;;13.81;72.22
28027;BME280;15344;52.342;-1.290;2023-02-04T11:08:53;102373.99;;;13.96;71.81
28027;BME280;15344;52.342;-1.290;2023-02-04T11:11:20;102375.15;;;14.04;71.91
28027;BME280;15344;52.342;-1.290;2023-02-04T11:13:56;102376.83;;;14.16;70.39
28027;BME280;15344;52.342;-1.290;2023-02-04T11:16:12;102376.03;;;14.73;69.53
28027;BME280;15344;52.342;-1.290;2023-02-04T11:18:44;102376.23;;;14.69;67.89
28027;BME280;15344;52.342;-1.290;2023-02-04T11:21:00;102377.50;;;15.29;67.13
28027;BME280;15344;52.342;-1.290;2023-02-04T11:23:32;102378.77;;;14.87;66.60
28027;BME280;15344;52.342;-1.290;2023-02-04T11:26:01;102382.12;;;13.51;69.43
28027;BME280;15344;52.342;-1.290;2023-02-04T11:28:23;102384.70;;;14.33;68.39
28027;BME280;15344;52.342;-1.290;2023-02-04T11:30:41;102383.59;;;15.00;66.66
28027;BME280;15344;52.342;-1.290;2023-02-04T11:35:32;102389.02;;;14.38;69.53
28027;BME280;15344;52.342;-1.290;2023-02-04T11:37:57;102383.70;;;14.82;67.74
28027;BME280;15344;52.342;-1.290;2023-02-04T11:40:31;102385.91;;;14.52;67.95
28027;BME280;15344;52.342;-1.290;2023-02-04T11:42:49;102378.68;;;14.63;67.79
28027;BME280;15344;52.342;-1.290;2023-02-04T11:45:16;102375.14;;;14.17;67.51
28027;BME280;15344;52.342;-1.290;2023-02-04T11:47:40;102373.50;;;14.57;67.19
28027;BME280;15344;52.342;-1.290;2023-02-04T11:50:12;102371.54;;;14.25;67.96
28027;BME280;15344;52.342;-1.290;2023-02-04T11:52:33;102369.34;;;14.30;67.85
28027;BME280;15344;52.342;-1.290;2023-02-04T11:54:57;102371.24;;;14.60;67.21
28027;BME280;15344;52.342;-1.290;2023-02-04T11:57:21;102371.06;;;14.16;68.29
28027;BME280;15344;52.342;-1.290;2023-02-04T11:59:47;102372.08;;;14.04;68.94
28027;BME280;15344;52.342;-1.290;2023-02-04T12:02:16;102368.85;;;14.18;67.95
28027;BME280;15344;52.342;-1.290;2023-02-04T12:04:38;102371.46;;;13.58;70.06
28027;BME280;15344;52.342;-1.290;2023-02-04T12:07:04;102371.44;;;13.36;70.71
28027;BME280;15344;52.342;-1.290;2023-02-04T12:09:31;102369.92;;;13.03;72.74
28027;BME280;15344;52.342;-1.290;2023-02-04T12:11:57;102370.64;;;13.85;71.15
28027;BME280;15344;52.342;-1.290;2023-02-04T12:14:21;102371.44;;;13.11;72.94
28027;BME280;15344;52.342;-1.290;2023-02-04T12:16:47;102368.99;;;12.88;73.41
28027;BME280;15344;52.342;-1.290;2023-02-04T12:19:11;102368.30;;;12.58;74.66
28027;BME280;15344;52.342;-1.290;2023-02-04T12:21:36;102365.97;;;13.06;76.04
28027;BME280;15344;52.342;-1.290;2023-02-04T12:24:02;102367.28;;;12.94;75.54
28027;BME280;15344;52.342;-1.290;2023-02-04T12:26:27;102369.22;;;13.41;74.05
28027;BME280;15344;52.342;-1.290;2023-02-04T12:28:53;102371.52;;;12.86;74.64
28027;BME280;15344;52.342;-1.290;2023-02-04T12:31:19;102376.81;;;12.73;75.20